Milnor, North Dakota
Current Conditions -  °F | °C
As of 2:35 AM on Friday 31 Oct 2014 (Local Time) from KGWR Reporting Station
Clear Clear  
Wind Chill: 14°   Ceiling: Unl
Heat Index: 23°   Visibility: 10mi
Dew Point: 18°   Wind: 8mph
Humidity: 80%   Direction: 350°N
Pressure: 30.59"   Gusts: NA
Location:  46.26°N, 97.46°W
Report Text: KGWR 310735Z AUTO 35007KT 10SM CLR M05/M08 A3059 RMK A01 P000
Loading
Personal Weather Stations






























Interactive Weather Map
Tropical Storm Tracking
New forecast layout! Learn more

10-Day Weather Forecast

Advertisements
Track Severe Weather on mobile